Alex Bay, NY

8:22 PM EDT on October 01, 2014 (GMT -0400)
Binnacle Island, ON | Change Station
CLOSE
Current Station
Personal Weather Station
Location: Gananoque, ONTARIO
Elevation: 287 ft
Nearby Weather Stations

Elev 287 ft 44.30 °N, 76.19 °W | Updated 12 minutes ago

Partly Cloudy
Partly Cloudy
61.5 °F
Feels Like 61.5 °F
N
9.9
Wind Variable Wind from East

Today
High -- | Low -- °F
--% Chance of Precip.
Yesterday
High -- | Low -- °F
Precip. -- in
7:01 AM 6:44 PM
First Quarter, 52% visible
Pressure 30.10 in
Visibility 10.0 miles
Clouds Overcast 5500 ft
Dew Point 58 °F
Humidity 87%
Rainfall 0.00 in
Snow Depth Not available.
UV 0 out of 12
Pollen 1.90 out of 12
Air Quality Not available.
Flu Activity Not available.
METAR KGTB 012358Z AUTO 01004KT 10SM OVC055 15/13 A3009 RMK AO2 SLP191 T01520127 10207 20152 52013

More Conditions Fewer Conditions

Pressure 30.10 in
Visibility 10.0 miles
Clouds Overcast 5500 ft
Dew Point 58 °F
Humidity 87%
Rainfall 0.00 in
Snow Depth Not available.
UV 0 out of 12
Pollen 1.90 out of 12
Air Quality Not available.
Flu Activity Not available.
METAR KGTB 012358Z AUTO 01004KT 10SM OVC055 15/13 A3009 RMK AO2 SLP191 T01520127 10207 20152 52013

More Conditions Fewer Conditions

10-Day Weather Forecast

Almanac

Astronomy

Oct. 01, 2014 Rise Set
Actual Time 7:01 AM EDT 6:44 PM EDT
Civil Twilight 6:32 AM EDT 7:13 PM EDT
Nautical Twilight 5:58 AM EDT 7:46 PM EDT
Astronomical Twilight 5:24 AM EDT 8:20 PM EDT
Moon 2:10 PM EDT (10/1) No Moon Set
Length of Visible Light 12h 40m
Length of Day
11h 43m
Tomorrow will be 3m 2s shorter.
First Quarter, 52% of the Moon is Illuminated
Today
First Quarter
Oct 8
Full
Oct 15
Last Quarter
Oct 23
New
Oct 30
First Quarter

Today's Extremes

State Highs State Lows

Community

WunderPhotos

Upload Photos

1,758,097 photos uploaded!

WunderBlogs® & News

Nearby

Air Quality

  Air Quality AQ Index Pollutant
Wednesday Good
PM2.5
Thursday Good
PM2.5

Snow Depth

Station Depth Elevation
No new snow has been reported.

Earthquake Activity

City Distance Mag. Time & Date
No recent earthquake activity has been reported nearby.
Minimum magnitude displayed is 2.5.

Coastal Water Temperatures

Place Temperature
Alexandria Bay, NY 64.9 °F
Ogdensburg, NY 64.0 °F

Nearby Weather Stations